This is the latest recevied weather packets stored in our database for station/object RA1AMO-10. If no packets are shown the sender has not sent any weather packets the latest 10 day(s).
| Time | Temp. | Humidity | Pressure | Rain* | Wind** | Luminosity | Snow |
|---|---|---|---|---|---|---|---|
| 1777440696 | 2.78° C | 51% | 1017.8 hPa | - | - | - | - |
| 1777439796 | 2.22° C | 52% | 1017.7 hPa | - | - | - | - |
| 1777438895 | 2.22° C | 53% | 1017.5 hPa | - | - | - | - |
| 1777434395 | 0.56° C | 58% | 1017.1 hPa | - | - | - | - |
| 1777429894 | 1.11° C | 57% | 1016.2 hPa | - | - | - | - |
| 1777428094 | 1.11° C | 56% | 1015.9 hPa | - | - | - | - |
| 1777412791 | 2.78° C | 52% | 1014.1 hPa | - | - | - | - |
| 1777411891 | 2.78° C | 52% | 1014 hPa | - | - | - | - |
| 1777410990 | 2.78° C | 52% | 1013.8 hPa | - | - | - | - |
| 1777410090 | 2.78° C | 53% | 1013.8 hPa | - | - | - | - |
| 1777407390 | 2.78° C | 53% | 1013.5 hPa | - | - | - | - |
| 1777406490 | 3.33° C | 53% | 1013.7 hPa | - | - | - | - |
| 1777404689 | 3.33° C | 53% | 1013.5 hPa | - | - | - | - |
| 1777403789 | 2.78° C | 53% | 1013.3 hPa | - | - | - | - |
| 1777397488 | 2.78° C | 55% | 1013 hPa | - | - | - | - |
| 1777396588 | 2.78° C | 56% | 1012.8 hPa | - | - | - | - |
| 1777395688 | 2.78° C | 56% | 1012.7 hPa | - | - | - | - |
| 1777392987 | 3.33° C | 57% | 1012.3 hPa | - | - | - | - |
| 1777392087 | 2.78° C | 57% | 1012.3 hPa | - | - | - | - |
| 1777390287 | 2.78° C | 61% | 1012.1 hPa | - | - | - | - |
| 1777389386 | 2.78° C | 64% | 1012.1 hPa | - | - | - | - |
| 1777388486 | 2.22° C | 67% | 1012.1 hPa | - | - | - | - |
| 1777387586 | 2.22° C | 66% | 1012 hPa | - | - | - | - |
| 1777386686 | 2.22° C | 63% | 1011.9 hPa | - | - | - | - |
| 1777385786 | 2.78° C | 57% | 1011.7 hPa | - | - | - | - |
* Rain since midnight (hover to see other rain measurements)
** Current wind speed in m/s (hover to see current wind gust speed)